Time;durP1;ratioP1;P1;durP2;ratioP2;P2;SDS_P1;SDS_P2;PMS_P1;PMS_P2;Temp;Humidity;BMP_temperature;BMP_pressure;BME280_temperature;BME280_humidity;BME280_pressure;Samples;Min_cycle;Max_cycle;Signal;HPM_P1;HPM_P2
2021/03/13 00:01:52;;;;;;;;;;;7.00;99.90;;;7.52;76.60;99215.91;5079702;28;19909;-80
2021/03/13 00:04:18;;;;;;;;;;;7.00;99.90;;;7.50;76.72;99214.66;5069692;28;19915;-79
2021/03/13 00:06:43;;;;;;;;;;;7.00;99.90;;;7.60;75.83;99214.03;5053081;28;20010;-78
2021/03/13 00:09:09;;;;;;;;;;;7.00;99.90;;;7.54;76.31;99215.53;5054091;28;19908;-80
2021/03/13 00:11:35;;;;;;;;;;;7.00;99.90;;;7.45;76.39;99199.09;5053713;28;19951;-78
2021/03/13 00:14:00;;;;;;;;;;;6.90;99.90;;;7.58;75.88;99194.19;5069253;28;20404;-77
2021/03/13 00:16:26;;;;;;;;;;;7.00;99.90;;;7.49;76.24;99188.84;5052864;28;19932;-81
2021/03/13 00:18:52;;;;;;;;;;;7.00;99.90;;;7.57;75.36;99175.91;5052519;28;19909;-80
2021/03/13 00:21:18;;;;;;;;;;;7.00;99.90;;;7.51;75.98;99178.19;5053741;28;19909;-80
2021/03/13 00:23:43;;;;;;;;;;;7.00;99.90;;;7.60;75.07;99175.16;5052567;28;20006;-81
2021/03/13 00:26:09;;;;;;;;;;;7.00;99.90;;;7.51;75.18;99175.41;5053923;28;19915;-82
2021/03/13 00:28:35;;;;;;;;;;;7.00;99.90;;;7.61;75.49;99176.75;5053776;28;19916;-82
2021/03/13 00:31:00;;;;;;;;;;;7.00;99.90;;;7.50;75.75;99162.69;5052128;28;19976;-81
2021/03/13 00:33:35;;;;;;;;;;;7.00;99.90;;;7.44;75.95;99169.75;5069157;28;19908;-80
2021/03/13 00:36:00;;;;;;;;;;;7.00;99.90;;;7.54;75.48;99160.78;5053434;28;19909;-79
2021/03/13 00:38:26;;;;;;;;;;;7.00;99.90;;;7.59;75.44;99163.22;5053388;28;19951;-82
2021/03/13 00:40:52;;;;;;;;;;;7.00;99.90;;;7.53;75.96;99167.50;5053530;28;19909;-82
2021/03/13 00:43:19;;;;;;;;;;;7.00;99.90;;;7.52;76.52;99149.22;5053715;28;20375;-80
2021/03/13 00:45:46;;;;;;;;;;;7.00;99.90;;;7.45;76.19;99138.00;5053833;28;19959;-82
2021/03/13 00:48:13;;;;;;;;;;;6.90;99.90;;;7.46;76.05;99141.56;5054481;28;20003;-78
2021/03/13 00:50:43;;;;;;;;;;;6.90;99.90;;;7.47;76.73;99145.97;5053090;28;19913;-80
2021/03/13 00:53:09;;;;;;;;;;;6.90;99.90;;;7.49;76.33;99127.75;5069892;28;19952;-81
2021/03/13 00:55:36;;;;;;;;;;;7.00;99.90;;;7.50;76.93;99128.56;5052448;28;20384;-82
2021/03/13 00:58:03;;;;;;;;;;;6.90;99.90;;;7.44;76.51;99114.19;5053588;28;19909;-81
2021/03/13 01:00:29;;;;;;;;;;;6.90;99.90;;;7.54;76.29;99116.31;5053844;28;20422;-81
2021/03/13 01:02:55;;;;;;;;;;;6.90;99.90;;;7.45;77.17;99123.34;5055016;28;19908;-84
2021/03/13 01:05:21;;;;;;;;;;;6.90;99.90;;;7.50;76.50;99123.00;5053131;28;19915;-81
2021/03/13 01:07:48;;;;;;;;;;;6.90;99.90;;;7.56;76.72;99096.50;5052667;28;19913;-82
2021/03/13 01:10:36;;;;;;;;;;;6.90;99.90;;;7.50;76.83;99101.59;5053485;28;19912;-80
2021/03/13 01:13:04;;;;;;;;;;;7.00;99.90;;;7.57;76.94;99098.91;5053056;28;19912;-80
2021/03/13 01:15:31;;;;;;;;;;;7.00;99.90;;;7.56;76.72;99097.28;5068513;28;19912;-80
2021/03/13 01:17:58;;;;;;;;;;;7.00;99.90;;;7.50;76.86;99086.88;5056840;28;19986;-82
2021/03/13 01:20:24;;;;;;;;;;;7.00;99.90;;;7.43;77.52;99090.34;5083610;28;19944;-81
2021/03/13 01:22:51;;;;;;;;;;;7.00;99.90;;;7.55;77.46;99083.75;5068286;28;19947;-84
2021/03/13 01:25:18;;;;;;;;;;;7.00;99.90;;;7.54;77.00;99083.00;5085139;28;19920;-81
2021/03/13 01:27:45;;;;;;;;;;;7.00;99.90;;;7.60;77.27;99075.13;5057582;28;19909;-82
2021/03/13 01:30:20;;;;;;;;;;;7.00;99.90;;;7.43;78.51;99071.72;5069167;28;20352;-81
2021/03/13 01:32:48;;;;;;;;;;;7.00;99.90;;;7.30;79.23;99056.44;5051523;28;19962;-80
2021/03/13 01:35:15;;;;;;;;;;;6.90;99.90;;;7.31;79.63;99057.25;5052697;28;19917;-81
2021/03/13 01:37:40;;;;;;;;;;;6.90;99.90;;;7.42;79.64;99053.44;5051303;28;19912;-82
2021/03/13 01:40:11;;;;;;;;;;;6.90;99.90;;;7.31;79.87;99052.50;5068078;28;19909;-82
2021/03/13 01:42:38;;;;;;;;;;;6.90;99.90;;;7.41;79.46;99045.50;5053558;28;19962;-83
2021/03/13 01:45:07;;;;;;;;;;;6.90;99.90;;;7.31;79.91;99023.94;5079685;28;19909;-83
2021/03/13 01:47:33;;;;;;;;;;;6.80;99.90;;;7.35;80.24;99022.00;5070790;28;19913;-82
2021/03/13 01:50:00;;;;;;;;;;;6.80;99.90;;;7.32;80.54;99028.31;5071941;28;19931;-80
2021/03/13 01:52:26;;;;;;;;;;;6.80;99.90;;;7.36;80.36;99020.81;5060724;28;19912;-80
2021/03/13 01:54:52;;;;;;;;;;;6.90;99.90;;;7.22;81.51;99018.66;5054519;28;19913;-79
2021/03/13 01:57:18;;;;;;;;;;;6.80;99.90;;;7.20;81.87;99023.78;5055795;28;19913;-81
2021/03/13 01:59:46;;;;;;;;;;;6.70;99.90;;;7.25;81.82;99008.78;5055211;28;19908;-81
2021/03/13 02:02:15;;;;;;;;;;;6.80;99.90;;;7.21;82.50;99000.41;5055299;28;19915;-79
2021/03/13 02:04:41;;;;;;;;;;;6.80;99.90;;;7.14;82.93;98988.38;5055628;28;19909;-80
2021/03/13 02:07:46;;;;;;;;;;;6.80;99.90;;;7.21;82.86;98988.47;5055108;28;20046;-81
2021/03/13 02:10:38;;;;;;;;;;;6.70;99.90;;;7.12;83.53;98999.88;5053881;28;19915;-80
2021/03/13 02:13:13;;;;;;;;;;;6.70;99.90;;;7.13;84.81;98984.81;5070545;28;19908;-81
2021/03/13 02:16:06;;;;;;;;;;;6.70;99.90;;;7.05;85.98;98976.75;5056984;28;20349;-80
2021/03/13 02:19:05;;;;;;;;;;;6.60;99.90;;;6.90;87.02;98971.00;5055473;28;19913;-80
2021/03/13 02:21:43;;;;;;;;;;;6.50;99.90;;;6.90;87.62;98962.66;5068108;28;19908;-80
2021/03/13 02:24:29;;;;;;;;;;;6.50;99.90;;;6.88;88.44;98959.47;5061628;28;20014;-81
2021/03/13 02:27:15;;;;;;;;;;;6.40;99.90;;;6.88;88.72;98959.47;5033915;28;19909;-82
2021/03/13 02:29:50;;;;;;;;;;;6.30;99.90;;;6.77;89.78;98938.31;5054507;28;19909;-79
2021/03/13 02:32:38;;;;;;;;;;;6.20;99.90;;;6.55;90.69;98928.06;5055332;28;19909;-83
2021/03/13 02:35:14;;;;;;;;;;;6.10;99.90;;;6.60;90.72;98939.63;5055223;28;20327;-81
2021/03/13 02:37:48;;;;;;;;;;;6.10;99.90;;;6.57;91.11;98928.47;5070462;28;19916;-82
2021/03/13 02:40:19;;;;;;;;;;;6.10;99.90;;;6.52;91.52;98935.13;5071251;28;20269;-82
2021/03/13 02:42:56;;;;;;;;;;;6.10;99.90;;;6.50;91.54;98922.81;5055704;28;20280;-80
2021/03/13 02:45:30;;;;;;;;;;;6.00;99.90;;;6.48;91.90;98919.63;5055464;28;19909;-82
2021/03/13 02:47:58;;;;;;;;;;;6.00;99.90;;;6.48;92.40;98916.84;5053408;28;19912;-83
2021/03/13 02:50:26;;;;;;;;;;;6.10;99.90;;;6.46;91.74;98906.13;5053075;28;19909;-81
2021/03/13 02:52:55;;;;;;;;;;;6.00;99.90;;;6.38;92.22;98895.31;5054132;28;19909;-80
2021/03/13 02:55:23;;;;;;;;;;;6.00;99.90;;;6.36;92.83;98895.66;5053792;28;20344;-80
2021/03/13 02:57:54;;;;;;;;;;;5.90;99.90;;;6.31;92.91;98896.78;5069294;28;19916;-81
2021/03/13 03:00:23;;;;;;;;;;;5.90;99.90;;;6.27;92.48;98879.28;5053818;28;19909;-81
2021/03/13 03:02:55;;;;;;;;;;;5.90;99.90;;;6.36;91.71;98879.03;5052723;28;19931;-81
2021/03/13 03:05:24;;;;;;;;;;;5.90;99.90;;;6.26;91.93;98852.75;5069479;28;20319;-82
2021/03/13 03:07:56;;;;;;;;;;;5.80;99.90;;;6.19;92.26;98858.19;5053672;28;19908;-82
2021/03/13 03:10:26;;;;;;;;;;;5.80;99.90;;;6.39;91.20;98849.78;5069043;28;20334;-80
2021/03/13 03:12:55;;;;;;;;;;;5.80;99.90;;;6.22;92.34;98846.34;5053796;28;19991;-80
2021/03/13 03:15:25;;;;;;;;;;;5.80;99.90;;;6.35;92.26;98846.94;5053970;28;19939;-82
2021/03/13 03:17:56;;;;;;;;;;;5.80;99.90;;;6.16;92.05;98824.88;5053771;28;19908;-80
2021/03/13 03:20:23;;;;;;;;;;;5.80;99.90;;;6.21;91.55;98839.22;5054145;28;19909;-81
2021/03/13 03:22:49;;;;;;;;;;;5.80;99.90;;;6.29;92.32;98838.13;5069427;28;19909;-81
2021/03/13 03:25:15;;;;;;;;;;;5.80;99.90;;;6.25;91.92;98823.44;5052795;28;20371;-80
2021/03/13 03:27:50;;;;;;;;;;;5.80;99.90;;;6.29;91.80;98823.50;5068976;28;19951;-80
2021/03/13 03:30:27;;;;;;;;;;;5.90;99.90;;;6.31;92.25;98815.59;5052417;28;19987;-80
2021/03/13 03:32:53;;;;;;;;;;;5.90;99.90;;;6.24;92.89;98812.69;5053340;28;19931;-82
2021/03/13 03:35:22;;;;;;;;;;;5.80;99.90;;;6.29;92.73;98809.63;5053659;28;20025;-81
2021/03/13 03:37:51;;;;;;;;;;;5.90;99.90;;;6.25;92.56;98803.22;5052411;28;20368;-78
2021/03/13 03:40:19;;;;;;;;;;;5.80;99.90;;;6.30;92.85;98791.81;5053315;28;20267;-81
2021/03/13 03:43:26;;;;;;;;;;;5.80;99.90;;;6.24;93.01;98788.56;5052240;28;20466;-79
2021/03/13 03:45:57;;;;;;;;;;;5.80;99.90;;;6.28;92.89;98772.78;5048229;28;19909;-80
2021/03/13 03:48:24;;;;;;;;;;;5.90;99.90;;;6.34;93.09;98767.69;5069230;28;19912;-82
2021/03/13 03:50:51;;;;;;;;;;;5.80;99.90;;;6.40;92.63;98765.41;5054030;28;19913;-82
2021/03/13 03:53:22;;;;;;;;;;;5.90;99.90;;;6.29;93.49;98762.50;5054032;28;19908;-80
2021/03/13 03:55:52;;;;;;;;;;;5.90;99.90;;;6.32;92.84;98756.19;5054123;28;19917;-80
2021/03/13 03:58:26;;;;;;;;;;;5.90;99.90;;;6.41;91.80;98753.94;5053826;28;20257;-82
2021/03/13 04:00:56;;;;;;;;;;;6.00;99.90;;;6.42;92.66;98732.56;5052575;28;19908;-81
2021/03/13 04:03:23;;;;;;;;;;;5.90;99.90;;;6.48;91.77;98726.31;5069406;28;19915;-81
2021/03/13 04:05:51;;;;;;;;;;;6.00;99.90;;;6.41;92.09;98750.38;5054249;28;19909;-84
2021/03/13 04:08:19;;;;;;;;;;;6.00;99.90;;;6.43;91.82;98704.44;5069999;28;19923;-83
2021/03/13 04:10:48;;;;;;;;;;;6.00;99.90;;;6.39;92.66;98713.91;5068924;28;19916;-83
2021/03/13 04:13:20;;;;;;;;;;;5.90;99.90;;;6.38;92.14;98699.25;5069179;28;19908;-83
2021/03/13 04:15:48;;;;;;;;;;;6.00;99.90;;;6.55;92.16;98695.88;5052194;28;19920;-81
2021/03/13 04:18:19;;;;;;;;;;;6.00;99.90;;;6.52;92.23;98685.53;5068899;28;19916;-81
2021/03/13 04:20:48;;;;;;;;;;;6.10;99.90;;;6.47;91.78;98683.13;5053424;28;19908;-82
2021/03/13 04:23:18;;;;;;;;;;;6.00;99.90;;;6.49;92.14;98672.44;5052672;28;19909;-81
2021/03/13 04:25:47;;;;;;;;;;;6.00;99.90;;;6.47;92.32;98651.81;5054054;28;20360;-80
2021/03/13 04:28:13;;;;;;;;;;;6.00;99.90;;;6.46;92.97;98650.19;5069557;28;19938;-80
2021/03/13 04:30:41;;;;;;;;;;;6.00;99.90;;;6.47;91.88;98657.34;5054366;28;20330;-81
2021/03/13 04:33:07;;;;;;;;;;;6.00;99.90;;;6.48;92.02;98634.00;5055376;28;20259;-80
2021/03/13 04:35:33;;;;;;;;;;;6.00;99.90;;;6.51;91.77;98642.34;5054193;28;20003;-79
2021/03/13 04:38:01;;;;;;;;;;;6.00;99.90;;;6.52;92.33;98634.84;5054243;28;19916;-84
2021/03/13 04:40:27;;;;;;;;;;;6.00;99.90;;;6.59;91.96;98635.69;5057657;28;19913;-82
2021/03/13 04:42:53;;;;;;;;;;;6.10;99.90;;;6.67;91.22;98640.16;5065718;28;19909;-81
2021/03/13 04:45:20;;;;;;;;;;;6.10;99.90;;;6.65;91.13;98616.72;5059441;28;20000;-81
2021/03/13 04:47:51;;;;;;;;;;;6.30;99.90;;;6.63;91.29;98606.03;5053553;28;19952;-80
2021/03/13 04:50:21;;;;;;;;;;;6.20;99.90;;;6.74;91.02;98606.13;5054298;28;20007;-79
2021/03/13 04:52:48;;;;;;;;;;;6.20;99.90;;;6.62;91.46;98600.84;5053040;28;19990;-79
2021/03/13 04:55:14;;;;;;;;;;;6.30;99.90;;;6.63;92.02;98597.72;5054045;28;20317;-82
2021/03/13 04:57:40;;;;;;;;;;;6.20;99.90;;;6.62;92.24;98601.66;5070199;28;19908;-80
2021/03/13 05:00:11;;;;;;;;;;;6.30;99.90;;;6.81;91.83;98578.44;5052947;28;19931;-80
2021/03/13 05:02:37;;;;;;;;;;;6.20;99.90;;;6.66;91.84;98576.72;5069726;28;19908;-82
2021/03/13 05:05:04;;;;;;;;;;;6.20;99.90;;;6.68;91.44;98552.16;5054427;28;19909;-80
2021/03/13 05:07:30;;;;;;;;;;;6.20;99.90;;;6.63;91.49;98549.75;5054280;28;19909;-81
2021/03/13 05:09:55;;;;;;;;;;;6.30;99.90;;;6.59;92.44;98546.94;5054395;28;19928;-81
2021/03/13 05:12:21;;;;;;;;;;;6.20;99.90;;;6.55;92.97;98548.88;5052552;28;19908;-81
2021/03/13 05:14:47;;;;;;;;;;;6.30;99.90;;;6.69;91.76;98526.84;5052572;28;20360;-79
2021/03/13 05:17:13;;;;;;;;;;;6.20;99.90;;;6.66;92.29;98529.56;5070845;28;19983;-81
2021/03/13 05:19:40;;;;;;;;;;;6.20;99.90;;;6.59;92.06;98496.22;5056343;28;19908;-80
2021/03/13 05:22:10;;;;;;;;;;;6.20;99.90;;;6.59;91.90;98505.34;5056247;28;19948;-78
2021/03/13 05:24:36;;;;;;;;;;;6.20;99.90;;;6.70;92.06;98495.16;5057785;28;19909;-81
2021/03/13 05:27:03;;;;;;;;;;;6.20;99.90;;;6.74;92.67;98490.41;5055833;28;19916;-81
2021/03/13 05:29:29;;;;;;;;;;;6.20;99.90;;;6.77;91.74;98473.03;5072648;28;19908;-83
2021/03/13 05:31:55;;;;;;;;;;;6.30;99.90;;;6.70;91.94;98466.59;5057084;28;19959;-80
2021/03/13 05:34:21;;;;;;;;;;;6.30;99.90;;;6.72;92.95;98473.34;5055278;28;19978;-81
2021/03/13 05:36:47;;;;;;;;;;;6.30;99.90;;;6.76;92.64;98456.75;5071798;28;19909;-81
2021/03/13 05:39:12;;;;;;;;;;;6.30;99.90;;;6.79;92.81;98454.00;5055517;28;20349;-80
2021/03/13 05:41:42;;;;;;;;;;;6.30;99.90;;;6.78;92.55;98441.28;5056840;28;20280;-81
2021/03/13 05:44:08;;;;;;;;;;;6.30;99.90;;;6.82;93.00;98424.69;5072464;28;19970;-79
2021/03/13 05:46:36;;;;;;;;;;;6.30;99.90;;;6.81;92.08;98426.66;5072610;28;19909;-81
2021/03/13 05:49:07;;;;;;;;;;;6.40;99.90;;;6.92;91.69;98431.47;5073007;28;19909;-81
2021/03/13 05:51:39;;;;;;;;;;;6.40;99.90;;;6.93;92.19;98414.47;5057188;28;19939;-81
2021/03/13 05:54:06;;;;;;;;;;;6.40;99.90;;;6.99;91.95;98404.56;5057284;28;19959;-81
2021/03/13 05:56:33;;;;;;;;;;;6.50;99.90;;;7.04;91.50;98409.75;5073343;28;19919;-80
2021/03/13 05:59:01;;;;;;;;;;;6.50;99.90;;;7.09;91.45;98401.06;5072781;28;19952;-79
2021/03/13 06:01:29;;;;;;;;;;;6.60;99.90;;;7.08;90.27;98384.78;5074110;28;19912;-81
2021/03/13 06:03:56;;;;;;;;;;;6.60;99.90;;;7.21;90.39;98389.59;5055992;28;19909;-80
2021/03/13 06:06:24;;;;;;;;;;;6.70;99.90;;;7.18;90.10;98370.97;5056940;28;19931;-80
2021/03/13 06:08:52;;;;;;;;;;;6.70;99.90;;;7.25;89.97;98361.88;5055265;28;19915;-80
2021/03/13 06:11:21;;;;;;;;;;;6.80;99.90;;;7.24;89.32;98365.81;5072170;28;19919;-82
2021/03/13 06:13:48;;;;;;;;;;;6.90;99.90;;;7.36;89.94;98366.25;5071521;28;20019;-79
2021/03/13 06:16:15;;;;;;;;;;;6.90;99.90;;;7.27;90.58;98348.38;5056010;28;19908;-80
2021/03/13 06:18:49;;;;;;;;;;;6.80;99.90;;;7.26;90.55;98350.34;5056635;28;20340;-82
2021/03/13 06:21:39;;;;;;;;;;;6.80;99.90;;;7.35;90.37;98339.66;5055887;28;19944;-80
2021/03/13 06:24:08;;;;;;;;;;;6.80;99.90;;;7.36;90.55;98332.13;5069546;28;19909;-78
2021/03/13 06:26:55;;;;;;;;;;;6.90;99.90;;;7.37;90.43;98323.44;5045019;28;19947;-81
2021/03/13 06:29:23;;;;;;;;;;;6.90;99.90;;;7.28;90.85;98317.47;5051012;28;19944;-81
2021/03/13 06:32:04;;;;;;;;;;;6.90;99.90;;;7.33;91.10;98319.03;5035192;28;19924;-80
2021/03/13 06:34:30;;;;;;;;;;;6.90;99.90;;;7.33;91.01;98330.16;5050663;28;20381;-83
2021/03/13 06:37:25;;;;;;;;;;;6.90;99.90;;;7.38;91.03;98315.91;5034871;28;19909;-80
2021/03/13 06:39:53;;;;;;;;;;;6.90;99.90;;;7.46;90.99;98300.03;5051177;28;19909;-80
2021/03/13 06:42:30;;;;;;;;;;;7.00;99.90;;;7.47;91.15;98305.19;5035752;28;19909;-82
2021/03/13 06:45:05;;;;;;;;;;;7.00;99.90;;;7.46;90.74;98292.50;5035577;28;19963;-80
2021/03/13 06:47:36;;;;;;;;;;;7.00;99.90;;;7.51;90.99;98306.00;5050589;28;19909;-83
2021/03/13 06:50:09;;;;;;;;;;;7.10;99.90;;;7.50;90.65;98287.75;5051200;28;19916;-80
2021/03/13 06:52:36;;;;;;;;;;;7.10;99.90;;;7.56;91.00;98286.16;5036256;28;19919;-80
2021/03/13 06:55:03;;;;;;;;;;;7.10;99.90;;;7.55;90.41;98278.22;5035756;28;19968;-82
2021/03/13 06:57:29;;;;;;;;;;;7.10;99.90;;;7.53;90.42;98280.59;5034218;28;20326;-81
2021/03/13 07:00:01;;;;;;;;;;;7.10;99.90;;;7.54;90.50;98273.88;5034168;28;19913;-83
2021/03/13 07:02:27;;;;;;;;;;;7.20;99.90;;;7.64;90.46;98265.53;5043515;28;19928;-78
2021/03/13 07:05:09;;;;;;;;;;;7.20;99.90;;;7.69;89.61;98281.81;5074235;28;19916;-80
2021/03/13 07:07:35;;;;;;;;;;;7.20;99.90;;;7.70;89.94;98271.50;5052335;28;19915;-83
2021/03/13 07:10:05;;;;;;;;;;;7.20;99.90;;;7.79;89.72;98281.03;5070222;28;19909;-81
2021/03/13 07:12:41;;;;;;;;;;;7.40;99.90;;;7.71;90.20;98276.66;5054436;28;19998;-83
2021/03/13 07:15:22;;;;;;;;;;;7.30;99.90;;;7.72;88.95;98244.09;5070297;28;19912;-81
2021/03/13 07:18:00;;;;;;;;;;;7.30;99.90;;;7.83;89.05;98251.22;5056636;28;20387;-80
2021/03/13 07:20:31;;;;;;;;;;;7.50;99.90;;;7.82;89.96;98251.66;5072232;28;20376;-82
2021/03/13 07:23:04;;;;;;;;;;;7.40;99.90;;;7.87;88.98;98265.94;5071555;28;19961;-80
2021/03/13 07:25:32;;;;;;;;;;;7.40;99.90;;;7.95;89.19;98266.72;5054100;28;20026;-82
2021/03/13 07:28:03;;;;;;;;;;;7.50;99.90;;;7.96;88.92;98248.88;5053774;28;20269;-80
2021/03/13 07:30:31;;;;;;;;;;;7.50;99.90;;;8.02;88.49;98250.06;5054763;28;19912;-80
2021/03/13 07:33:05;;;;;;;;;;;7.50;99.90;;;8.03;88.15;98229.38;5070271;28;20057;-81
2021/03/13 07:35:38;;;;;;;;;;;7.60;99.90;;;8.08;88.65;98242.91;5053637;28;20466;-82
2021/03/13 07:38:09;;;;;;;;;;;7.60;99.90;;;8.04;88.36;98238.53;5078141;28;19908;-80
2021/03/13 07:40:43;;;;;;;;;;;7.60;99.90;;;8.14;87.84;98241.28;5068566;28;19990;-80
2021/03/13 07:43:15;;;;;;;;;;;7.70;99.90;;;8.20;88.00;98258.34;5065630;28;19913;-82
2021/03/13 07:45:45;;;;;;;;;;;7.70;99.90;;;8.25;88.93;98275.41;5065165;28;19909;-83
2021/03/13 07:48:14;;;;;;;;;;;7.70;99.90;;;8.12;90.22;98309.63;5055553;28;19920;-82
2021/03/13 07:50:41;;;;;;;;;;;7.70;99.90;;;8.02;90.80;98343.75;5054194;28;19920;-82
2021/03/13 07:53:10;;;;;;;;;;;7.50;99.90;;;7.76;91.05;98342.94;5053414;28;19991;-80
2021/03/13 07:55:36;;;;;;;;;;;7.40;99.90;;;7.75;87.41;98355.25;5054552;28;20019;-79
2021/03/13 07:58:03;;;;;;;;;;;7.40;99.90;;;7.66;87.81;98343.72;5054294;28;19916;-81
2021/03/13 08:00:45;;;;;;;;;;;7.30;99.90;;;7.54;83.51;98333.00;5070232;28;19913;-82
2021/03/13 08:03:26;;;;;;;;;;;7.10;99.90;;;7.58;75.38;98308.78;5071059;28;19908;-83
2021/03/13 08:06:01;;;;;;;;;;;7.20;99.90;;;7.55;76.97;98340.13;5055944;28;20375;-80
2021/03/13 08:08:47;;;;;;;;;;;7.20;99.90;;;7.62;80.16;98326.25;5054396;28;19909;-78
2021/03/13 08:11:18;;;;;;;;;;;7.30;99.90;;;7.57;80.64;98323.88;5055289;28;19909;-81
2021/03/13 08:13:50;;;;;;;;;;;7.10;99.90;;;7.61;78.92;98321.88;5070698;28;20038;-80
2021/03/13 08:16:30;;;;;;;;;;;7.20;99.90;;;7.58;78.57;98308.78;5070258;28;19909;-82
2021/03/13 08:18:59;;;;;;;;;;;7.20;99.90;;;7.60;78.87;98316.72;5050197;28;19917;-81
2021/03/13 08:21:25;;;;;;;;;;;7.10;99.90;;;7.68;77.71;98341.34;5050853;28;20391;-79
2021/03/13 08:23:53;;;;;;;;;;;7.10;99.90;;;7.67;78.30;98334.22;5036563;28;19909;-81
2021/03/13 08:26:43;;;;;;;;;;;7.20;99.90;;;7.64;77.58;98325.88;5035396;28;19909;-81
2021/03/13 08:29:11;;;;;;;;;;;7.10;99.90;;;7.61;75.91;98346.88;5051435;28;20003;-79
2021/03/13 08:31:40;;;;;;;;;;;7.10;99.90;;;7.72;76.21;98341.34;5034223;28;19909;-78
2021/03/13 08:34:05;;;;;;;;;;;7.10;99.90;;;7.74;75.42;98342.53;5034025;28;19921;-79
2021/03/13 08:36:45;;;;;;;;;;;7.10;99.90;;;7.72;74.43;98338.56;5033955;28;19955;-80
2021/03/13 08:39:17;;;;;;;;;;;7.20;99.90;;;7.73;75.33;98345.72;5033664;28;20280;-81
2021/03/13 08:44:27;;;;;;;;;;;7.20;99.90;;;7.70;74.66;98360.41;5033781;28;19909;-81
2021/03/13 08:47:03;;;;;;;;;;;7.10;99.90;;;7.75;74.33;98348.88;5034037;28;19909;-79
2021/03/13 08:49:30;;;;;;;;;;;7.20;99.90;;;7.84;73.45;98368.75;5033551;28;19923;-80
2021/03/13 08:52:05;;;;;;;;;;;7.20;99.90;;;7.78;73.28;98373.91;5051219;28;19912;-80
2021/03/13 08:54:37;;;;;;;;;;;7.30;99.90;;;7.92;74.82;98364.81;5039249;28;20347;-80
2021/03/13 08:57:39;;;;;;;;;;;7.30;99.90;;;7.99;73.34;98359.25;5039385;28;19909;-79
2021/03/13 09:00:07;;;;;;;;;;;7.40;99.90;;;8.00;72.94;98363.59;5039085;28;19913;-81
2021/03/13 09:02:39;;;;;;;;;;;7.40;99.90;;;7.94;72.40;98371.53;5037719;28;20180;-81
2021/03/13 09:05:13;;;;;;;;;;;7.40;99.90;;;7.93;72.26;98366.38;5053538;28;19958;-80
2021/03/13 09:07:44;;;;;;;;;;;7.40;99.90;;;7.90;73.52;98365.19;5046516;28;19996;-79
2021/03/13 09:10:11;;;;;;;;;;;7.40;99.90;;;8.00;72.98;98380.28;5060041;28;19909;-80
2021/03/13 09:12:39;;;;;;;;;;;7.40;99.90;;;7.92;72.96;98376.72;5059966;28;19909;-80
2021/03/13 09:15:08;;;;;;;;;;;7.40;99.90;;;7.86;73.73;98360.81;5058420;28;19912;-80
2021/03/13 09:17:35;;;;;;;;;;;7.30;99.90;;;7.85;74.22;98359.22;5058216;28;20016;-80
2021/03/13 09:20:15;;;;;;;;;;;7.30;99.90;;;7.84;73.52;98369.53;5058843;28;19987;-80
2021/03/13 09:22:44;;;;;;;;;;;7.40;99.90;;;8.00;73.76;98377.50;5075113;28;20003;-77
2021/03/13 09:25:21;;;;;;;;;;;7.40;99.90;;;7.95;74.75;98373.13;5057829;28;19915;-81
2021/03/13 09:27:50;;;;;;;;;;;7.40;99.90;;;7.92;74.12;98368.38;5085118;28;19909;-79
2021/03/13 09:30:27;;;;;;;;;;;7.40;99.90;;;7.95;74.84;98375.91;5074586;28;19959;-80
2021/03/13 09:32:54;;;;;;;;;;;7.50;99.90;;;8.04;74.84;98369.16;5062071;28;20003;-78
2021/03/13 09:35:25;;;;;;;;;;;7.40;99.90;;;7.90;75.57;98381.06;5060112;28;20224;-78
2021/03/13 09:37:51;;;;;;;;;;;7.50;99.90;;;7.97;75.90;98369.94;5076159;28;19909;-80
2021/03/13 09:40:26;;;;;;;;;;;7.50;99.90;;;7.97;75.15;98373.53;5075060;28;20361;-81
2021/03/13 09:42:53;;;;;;;;;;;7.50;99.90;;;8.03;75.70;98365.59;5075674;28;19909;-79
2021/03/13 09:45:23;;;;;;;;;;;7.50;99.90;;;8.01;75.57;98356.84;5058818;28;20375;-77
2021/03/13 09:47:54;;;;;;;;;;;7.50;99.90;;;8.17;75.91;98334.22;5058173;28;20007;-80
2021/03/13 09:50:28;;;;;;;;;;;7.60;99.90;;;8.17;74.68;98353.69;5058524;28;20331;-80
2021/03/13 09:52:55;;;;;;;;;;;7.70;99.90;;;8.33;74.78;98356.88;5074092;28;19912;-78
2021/03/13 09:55:24;;;;;;;;;;;7.80;99.90;;;8.30;73.79;98352.91;5059433;28;19939;-77
2021/03/13 09:57:59;;;;;;;;;;;7.80;99.90;;;8.40;73.39;98345.75;5074715;28;19909;-78
2021/03/13 10:00:41;;;;;;;;;;;7.80;99.90;;;8.44;72.81;98346.56;5074559;28;19908;-78
2021/03/13 10:03:14;;;;;;;;;;;7.90;99.90;;;8.46;73.16;98344.97;5058659;28;19909;-79
2021/03/13 10:05:41;;;;;;;;;;;7.90;99.90;;;8.48;72.97;98337.00;5059462;28;20367;-78
2021/03/13 10:08:14;;;;;;;;;;;8.00;99.90;;;8.45;73.08;98337.00;5073544;28;20299;-79
2021/03/13 10:10:52;;;;;;;;;;;7.90;99.90;;;8.18;77.31;98349.72;5074156;28;20003;-79
2021/03/13 10:13:20;;;;;;;;;;;7.80;99.90;;;7.90;80.07;98339.38;5057960;28;19912;-78
2021/03/13 10:15:46;;;;;;;;;;;7.50;99.90;;;7.71;80.54;98332.22;5075045;28;19948;-80
2021/03/13 10:18:38;;;;;;;;;;;7.30;99.90;;;7.84;81.86;98338.19;5074818;28;19909;-78
2021/03/13 10:21:06;;;;;;;;;;;7.30;99.90;;;8.06;80.67;98341.78;5056329;28;19909;-78
2021/03/13 10:23:36;;;;;;;;;;;7.40;99.90;;;8.06;78.36;98325.88;5059501;28;19978;-80
2021/03/13 10:26:17;;;;;;;;;;;7.50;99.90;;;8.21;78.18;98321.13;5075279;28;20327;-81
2021/03/13 10:28:50;;;;;;;;;;;7.60;99.90;;;8.23;77.43;98319.53;5058957;28;19917;-79
2021/03/13 10:31:29;;;;;;;;;;;7.70;99.90;;;8.47;77.38;98317.94;5074685;28;20361;-80
2021/03/13 10:33:55;;;;;;;;;;;7.90;99.90;;;8.64;74.90;98336.56;5058094;28;19921;-79
2021/03/13 10:36:42;;;;;;;;;;;8.10;99.90;;;8.78;72.56;98317.06;5074477;28;19935;-77
2021/03/13 10:39:08;;;;;;;;;;;8.30;99.90;;;8.69;71.48;98333.38;5058064;28;19913;-80
2021/03/13 10:41:35;;;;;;;;;;;8.20;99.90;;;8.65;70.18;98320.66;5075109;28;20391;-80
2021/03/13 10:44:01;;;;;;;;;;;8.20;99.90;;;8.60;69.39;98310.75;5075433;28;19909;-80
2021/03/13 10:46:37;;;;;;;;;;;8.10;99.90;;;8.79;68.22;98320.66;5060205;28;19909;-80
2021/03/13 10:49:05;;;;;;;;;;;8.20;99.90;;;9.18;68.42;98303.78;5057554;28;19908;-78
2021/03/13 10:51:46;;;;;;;;;;;8.50;99.90;;;9.02;66.90;98316.16;5058826;28;19913;-82
2021/03/13 10:54:30;;;;;;;;;;;8.60;99.90;;;9.08;68.14;98321.34;5059320;28;19913;-78
2021/03/13 10:57:05;;;;;;;;;;;8.60;99.90;;;9.06;67.26;98330.06;5074414;28;19909;-79
2021/03/13 10:59:34;;;;;;;;;;;8.70;99.90;;;9.06;69.64;98316.16;5075231;28;19947;-82
2021/03/13 11:02:00;;;;;;;;;;;8.60;99.90;;;9.10;69.13;98330.84;5074708;28;19915;-79
2021/03/13 11:04:26;;;;;;;;;;;8.60;99.90;;;8.72;73.05;98324.25;5073163;28;19909;-79
2021/03/13 11:06:54;;;;;;;;;;;8.40;99.90;;;8.73;71.81;98322.25;5056641;28;19915;-81
2021/03/13 11:09:24;;;;;;;;;;;8.30;99.90;;;9.55;73.23;98329.03;5070561;28;19947;-80
2021/03/13 11:11:50;;;;;;;;;;;8.80;99.90;;;10.01;67.53;98332.31;5055742;28;20218;-80
2021/03/13 11:14:16;;;;;;;;;;;9.40;99.90;;;10.23;65.24;98312.63;5069760;28;19960;-79
2021/03/13 11:16:43;;;;;;;;;;;9.80;99.90;;;10.37;66.53;98304.91;5055865;28;19915;-82
2021/03/13 11:19:09;;;;;;;;;;;9.90;99.90;;;10.27;64.59;98316.19;5054591;28;20022;-81
2021/03/13 11:21:35;;;;;;;;;;;9.90;99.90;;;10.49;63.96;98310.00;5054727;28;19948;-81
2021/03/13 11:24:01;;;;;;;;;;;10.00;99.90;;;10.49;62.25;98306.41;5056020;28;19912;-81
2021/03/13 11:26:27;;;;;;;;;;;10.00;99.90;;;9.94;63.17;98315.63;5071656;28;19999;-79
2021/03/13 11:28:53;;;;;;;;;;;9.60;99.90;;;9.60;62.58;98314.66;5071003;28;19912;-80
2021/03/13 11:31:20;;;;;;;;;;;9.20;99.90;;;9.40;63.76;98319.19;5070723;28;19948;-78
2021/03/13 11:33:48;;;;;;;;;;;9.00;99.90;;;9.22;65.58;98343.53;5070229;28;20361;-78
2021/03/13 11:36:15;;;;;;;;;;;8.80;99.90;;;7.95;75.48;98361.22;5058257;28;19948;-79
2021/03/13 11:38:41;;;;;;;;;;;7.80;99.90;;;7.31;81.22;98391.63;5070506;28;19908;-84
2021/03/13 11:41:11;;;;;;;;;;;7.10;99.90;;;6.96;84.41;98376.81;5070512;28;20368;-79
2021/03/13 11:43:42;;;;;;;;;;;6.70;99.90;;;7.60;86.74;98359.19;5070356;28;19908;-81
2021/03/13 11:46:13;;;;;;;;;;;6.90;99.90;;;8.54;86.92;98356.84;5055444;28;19912;-82
2021/03/13 11:48:43;;;;;;;;;;;7.70;99.90;;;9.29;83.75;98344.31;5055823;28;19996;-80
2021/03/13 11:51:11;;;;;;;;;;;8.30;99.90;;;9.52;79.56;98333.44;5059713;28;19911;-79
2021/03/13 11:53:37;;;;;;;;;;;8.80;99.90;;;9.52;78.50;98336.22;5061745;28;19909;-80